sensor_id;sensor_type;location;lat;lon;timestamp;P1;durP1;ratioP1;P2;durP2;ratioP2
46717;SDS011;32448;44.960;-0.698;2024-03-02T00:00:21;13.70;;;2.38;;
46717;SDS011;32448;44.960;-0.698;2024-03-02T00:02:49;18.02;;;3.10;;
46717;SDS011;32448;44.960;-0.698;2024-03-02T00:05:19;19.52;;;3.13;;
46717;SDS011;32448;44.960;-0.698;2024-03-02T00:07:51;17.77;;;3.00;;
46717;SDS011;32448;44.960;-0.698;2024-03-02T00:12:58;16.00;;;2.97;;
46717;SDS011;32448;44.960;-0.698;2024-03-02T00:18:18;15.73;;;2.88;;
46717;SDS011;32448;44.960;-0.698;2024-03-02T00:20:54;19.75;;;4.22;;
46717;SDS011;32448;44.960;-0.698;2024-03-02T00:23:23;14.67;;;2.63;;
46717;SDS011;32448;44.960;-0.698;2024-03-02T00:25:54;20.05;;;3.70;;
46717;SDS011;32448;44.960;-0.698;2024-03-02T00:31:06;17.00;;;3.15;;
46717;SDS011;32448;44.960;-0.698;2024-03-02T00:33:35;12.73;;;2.80;;
46717;SDS011;32448;44.960;-0.698;2024-03-02T00:36:07;17.95;;;2.95;;
46717;SDS011;32448;44.960;-0.698;2024-03-02T00:38:39;17.35;;;3.00;;
46717;SDS011;32448;44.960;-0.698;2024-03-02T00:44:05;10.27;;;2.63;;
46717;SDS011;32448;44.960;-0.698;2024-03-02T00:46:33;12.00;;;2.83;;
46717;SDS011;32448;44.960;-0.698;2024-03-02T00:52:07;17.70;;;2.90;;
46717;SDS011;32448;44.960;-0.698;2024-03-02T00:54:34;13.95;;;3.08;;
46717;SDS011;32448;44.960;-0.698;2024-03-02T00:57:00;16.10;;;2.08;;
46717;SDS011;32448;44.960;-0.698;2024-03-02T00:59:28;17.77;;;2.72;;
46717;SDS011;32448;44.960;-0.698;2024-03-02T01:01:58;14.48;;;2.30;;
46717;SDS011;32448;44.960;-0.698;2024-03-02T01:04:25;14.25;;;2.67;;
46717;SDS011;32448;44.960;-0.698;2024-03-02T01:06:51;12.05;;;2.65;;
46717;SDS011;32448;44.960;-0.698;2024-03-02T01:09:18;17.23;;;2.85;;
46717;SDS011;32448;44.960;-0.698;2024-03-02T01:11:45;10.48;;;2.72;;
46717;SDS011;32448;44.960;-0.698;2024-03-02T01:14:12;16.70;;;2.47;;
46717;SDS011;32448;44.960;-0.698;2024-03-02T01:16:39;14.70;;;2.60;;
46717;SDS011;32448;44.960;-0.698;2024-03-02T01:19:06;17.77;;;3.05;;
46717;SDS011;32448;44.960;-0.698;2024-03-02T01:21:33;18.17;;;2.35;;
46717;SDS011;32448;44.960;-0.698;2024-03-02T01:24:00;11.95;;;2.47;;
46717;SDS011;32448;44.960;-0.698;2024-03-02T01:26:27;14.27;;;2.13;;
46717;SDS011;32448;44.960;-0.698;2024-03-02T01:28:54;11.45;;;2.60;;
46717;SDS011;32448;44.960;-0.698;2024-03-02T01:31:21;10.23;;;2.35;;
46717;SDS011;32448;44.960;-0.698;2024-03-02T01:33:47;11.88;;;2.38;;
46717;SDS011;32448;44.960;-0.698;2024-03-02T01:36:14;20.25;;;3.40;;
46717;SDS011;32448;44.960;-0.698;2024-03-02T01:38:41;24.02;;;3.42;;
46717;SDS011;32448;44.960;-0.698;2024-03-02T01:41:08;12.52;;;2.28;;
46717;SDS011;32448;44.960;-0.698;2024-03-02T01:43:35;15.60;;;2.50;;
46717;SDS011;32448;44.960;-0.698;2024-03-02T01:46:06;10.73;;;2.17;;
46717;SDS011;32448;44.960;-0.698;2024-03-02T01:48:33;14.38;;;3.45;;
46717;SDS011;32448;44.960;-0.698;2024-03-02T01:51:00;13.15;;;2.95;;
46717;SDS011;32448;44.960;-0.698;2024-03-02T01:53:27;14.70;;;2.30;;
46717;SDS011;32448;44.960;-0.698;2024-03-02T01:55:55;16.25;;;2.63;;
46717;SDS011;32448;44.960;-0.698;2024-03-02T01:58:22;14.32;;;2.45;;
46717;SDS011;32448;44.960;-0.698;2024-03-02T02:00:48;12.82;;;2.72;;
46717;SDS011;32448;44.960;-0.698;2024-03-02T02:03:17;10.90;;;2.33;;
46717;SDS011;32448;44.960;-0.698;2024-03-02T02:05:43;13.60;;;2.65;;
46717;SDS011;32448;44.960;-0.698;2024-03-02T02:08:10;16.00;;;2.60;;
46717;SDS011;32448;44.960;-0.698;2024-03-02T02:10:37;13.60;;;2.20;;
46717;SDS011;32448;44.960;-0.698;2024-03-02T02:13:04;10.48;;;1.98;;
46717;SDS011;32448;44.960;-0.698;2024-03-02T02:15:31;11.10;;;1.77;;
46717;SDS011;32448;44.960;-0.698;2024-03-02T02:17:58;10.90;;;2.08;;
46717;SDS011;32448;44.960;-0.698;2024-03-02T02:20:26;18.27;;;2.60;;
46717;SDS011;32448;44.960;-0.698;2024-03-02T02:22:56;8.13;;;2.22;;
46717;SDS011;32448;44.960;-0.698;2024-03-02T02:25:27;19.88;;;2.70;;
46717;SDS011;32448;44.960;-0.698;2024-03-02T02:27:56;13.77;;;2.65;;
46717;SDS011;32448;44.960;-0.698;2024-03-02T02:30:30;15.93;;;3.00;;
46717;SDS011;32448;44.960;-0.698;2024-03-02T02:32:58;22.27;;;3.10;;
46717;SDS011;32448;44.960;-0.698;2024-03-02T02:35:26;18.42;;;2.55;;
46717;SDS011;32448;44.960;-0.698;2024-03-02T02:37:54;14.85;;;2.15;;
46717;SDS011;32448;44.960;-0.698;2024-03-02T02:40:22;16.63;;;2.50;;
46717;SDS011;32448;44.960;-0.698;2024-03-02T02:42:50;15.95;;;2.45;;
46717;SDS011;32448;44.960;-0.698;2024-03-02T02:45:20;11.98;;;2.30;;
46717;SDS011;32448;44.960;-0.698;2024-03-02T02:47:47;13.10;;;2.30;;
46717;SDS011;32448;44.960;-0.698;2024-03-02T02:50:14;14.10;;;2.35;;
46717;SDS011;32448;44.960;-0.698;2024-03-02T02:52:41;12.85;;;2.25;;
46717;SDS011;32448;44.960;-0.698;2024-03-02T02:55:09;14.60;;;2.67;;
46717;SDS011;32448;44.960;-0.698;2024-03-02T02:57:38;14.25;;;2.80;;
46717;SDS011;32448;44.960;-0.698;2024-03-02T03:00:10;19.23;;;3.15;;
46717;SDS011;32448;44.960;-0.698;2024-03-02T03:02:47;11.95;;;2.25;;
46717;SDS011;32448;44.960;-0.698;2024-03-02T03:05:17;18.20;;;2.53;;
46717;SDS011;32448;44.960;-0.698;2024-03-02T03:07:44;15.70;;;2.50;;
46717;SDS011;32448;44.960;-0.698;2024-03-02T03:10:12;17.25;;;2.50;;
46717;SDS011;32448;44.960;-0.698;2024-03-02T03:12:40;16.95;;;2.50;;
46717;SDS011;32448;44.960;-0.698;2024-03-02T03:15:09;12.30;;;2.10;;
46717;SDS011;32448;44.960;-0.698;2024-03-02T03:17:38;17.98;;;2.55;;
46717;SDS011;32448;44.960;-0.698;2024-03-02T03:20:05;17.33;;;3.25;;
46717;SDS011;32448;44.960;-0.698;2024-03-02T03:22:36;15.13;;;2.42;;
46717;SDS011;32448;44.960;-0.698;2024-03-02T03:25:04;19.92;;;2.75;;
46717;SDS011;32448;44.960;-0.698;2024-03-02T03:27:32;12.82;;;2.38;;
46717;SDS011;32448;44.960;-0.698;2024-03-02T03:29:59;13.00;;;2.22;;
46717;SDS011;32448;44.960;-0.698;2024-03-02T03:32:25;16.95;;;3.08;;
46717;SDS011;32448;44.960;-0.698;2024-03-02T03:34:52;15.30;;;2.50;;
46717;SDS011;32448;44.960;-0.698;2024-03-02T03:37:19;14.30;;;1.90;;
46717;SDS011;32448;44.960;-0.698;2024-03-02T03:39:46;14.52;;;2.13;;
46717;SDS011;32448;44.960;-0.698;2024-03-02T03:42:13;11.57;;;2.63;;
46717;SDS011;32448;44.960;-0.698;2024-03-02T03:44:40;18.77;;;2.17;;
46717;SDS011;32448;44.960;-0.698;2024-03-02T03:47:08;9.30;;;1.67;;
46717;SDS011;32448;44.960;-0.698;2024-03-02T03:49:35;9.50;;;1.88;;
46717;SDS011;32448;44.960;-0.698;2024-03-02T03:52:02;9.85;;;2.40;;
46717;SDS011;32448;44.960;-0.698;2024-03-02T03:54:29;10.63;;;1.77;;
46717;SDS011;32448;44.960;-0.698;2024-03-02T03:56:56;15.57;;;1.98;;
46717;SDS011;32448;44.960;-0.698;2024-03-02T03:59:22;17.55;;;2.42;;
46717;SDS011;32448;44.960;-0.698;2024-03-02T04:01:50;8.88;;;2.22;;
46717;SDS011;32448;44.960;-0.698;2024-03-02T04:04:17;10.98;;;2.88;;
46717;SDS011;32448;44.960;-0.698;2024-03-02T04:06:44;14.50;;;2.05;;
46717;SDS011;32448;44.960;-0.698;2024-03-02T04:09:11;9.75;;;1.58;;
46717;SDS011;32448;44.960;-0.698;2024-03-02T04:11:38;12.82;;;1.95;;
46717;SDS011;32448;44.960;-0.698;2024-03-02T04:14:04;9.15;;;1.83;;
46717;SDS011;32448;44.960;-0.698;2024-03-02T04:16:32;9.60;;;2.47;;
46717;SDS011;32448;44.960;-0.698;2024-03-02T04:18:59;10.30;;;2.20;;
46717;SDS011;32448;44.960;-0.698;2024-03-02T04:21:26;11.50;;;2.28;;
46717;SDS011;32448;44.960;-0.698;2024-03-02T04:23:53;9.90;;;1.70;;
46717;SDS011;32448;44.960;-0.698;2024-03-02T04:26:24;11.60;;;1.90;;
46717;SDS011;32448;44.960;-0.698;2024-03-02T04:28:52;12.25;;;1.63;;
46717;SDS011;32448;44.960;-0.698;2024-03-02T04:31:20;10.55;;;2.05;;
46717;SDS011;32448;44.960;-0.698;2024-03-02T04:33:47;8.80;;;1.95;;
46717;SDS011;32448;44.960;-0.698;2024-03-02T04:36:14;8.88;;;1.73;;
46717;SDS011;32448;44.960;-0.698;2024-03-02T04:38:40;12.95;;;1.80;;
46717;SDS011;32448;44.960;-0.698;2024-03-02T04:41:07;10.82;;;2.00;;
46717;SDS011;32448;44.960;-0.698;2024-03-02T04:43:34;6.13;;;1.77;;
46717;SDS011;32448;44.960;-0.698;2024-03-02T04:46:01;7.97;;;1.77;;
46717;SDS011;32448;44.960;-0.698;2024-03-02T04:48:28;7.53;;;1.30;;
46717;SDS011;32448;44.960;-0.698;2024-03-02T04:50:56;11.15;;;2.15;;
46717;SDS011;32448;44.960;-0.698;2024-03-02T04:53:23;5.50;;;1.73;;
46717;SDS011;32448;44.960;-0.698;2024-03-02T04:55:49;11.73;;;1.70;;
46717;SDS011;32448;44.960;-0.698;2024-03-02T04:58:22;7.17;;;1.43;;
46717;SDS011;32448;44.960;-0.698;2024-03-02T05:00:49;6.68;;;1.70;;
46717;SDS011;32448;44.960;-0.698;2024-03-02T05:03:16;6.22;;;1.20;;
46717;SDS011;32448;44.960;-0.698;2024-03-02T05:05:43;5.50;;;1.40;;
46717;SDS011;32448;44.960;-0.698;2024-03-02T05:08:09;25.73;;;11.35;;
46717;SDS011;32448;44.960;-0.698;2024-03-02T05:10:38;11.70;;;5.00;;
46717;SDS011;32448;44.960;-0.698;2024-03-02T05:13:05;20.50;;;13.02;;
46717;SDS011;32448;44.960;-0.698;2024-03-02T05:15:32;32.30;;;21.02;;
46717;SDS011;32448;44.960;-0.698;2024-03-02T05:17:59;29.80;;;18.48;;
46717;SDS011;32448;44.960;-0.698;2024-03-02T05:20:26;33.05;;;20.52;;
46717;SDS011;32448;44.960;-0.698;2024-03-02T05:22:53;31.23;;;19.52;;
46717;SDS011;32448;44.960;-0.698;2024-03-02T05:25:20;9.77;;;5.97;;
46717;SDS011;32448;44.960;-0.698;2024-03-02T05:27:47;12.77;;;8.85;;
46717;SDS011;32448;44.960;-0.698;2024-03-02T05:30:14;5.00;;;2.35;;
46717;SDS011;32448;44.960;-0.698;2024-03-02T05:32:41;8.07;;;4.60;;
46717;SDS011;32448;44.960;-0.698;2024-03-02T05:35:08;7.95;;;4.38;;
46717;SDS011;32448;44.960;-0.698;2024-03-02T05:37:37;4.80;;;1.95;;
46717;SDS011;32448;44.960;-0.698;2024-03-02T05:40:04;4.38;;;2.20;;
46717;SDS011;32448;44.960;-0.698;2024-03-02T05:42:32;5.88;;;2.08;;
46717;SDS011;32448;44.960;-0.698;2024-03-02T05:44:59;3.67;;;2.40;;
46717;SDS011;32448;44.960;-0.698;2024-03-02T05:47:26;8.50;;;3.28;;
46717;SDS011;32448;44.960;-0.698;2024-03-02T05:49:54;5.03;;;3.00;;
46717;SDS011;32448;44.960;-0.698;2024-03-02T05:52:21;4.13;;;2.05;;
46717;SDS011;32448;44.960;-0.698;2024-03-02T05:54:48;16.60;;;5.53;;
46717;SDS011;32448;44.960;-0.698;2024-03-02T05:57:16;29.65;;;9.30;;
46717;SDS011;32448;44.960;-0.698;2024-03-02T05:59:44;101.95;;;23.10;;
46717;SDS011;32448;44.960;-0.698;2024-03-02T06:02:13;46.20;;;10.18;;
46717;SDS011;32448;44.960;-0.698;2024-03-02T06:04:40;21.02;;;6.22;;
46717;SDS011;32448;44.960;-0.698;2024-03-02T06:07:07;34.55;;;9.27;;
46717;SDS011;32448;44.960;-0.698;2024-03-02T06:09:34;24.67;;;7.90;;
46717;SDS011;32448;44.960;-0.698;2024-03-02T06:12:01;30.35;;;8.43;;
46717;SDS011;32448;44.960;-0.698;2024-03-02T06:14:28;22.75;;;6.53;;
46717;SDS011;32448;44.960;-0.698;2024-03-02T06:16:55;27.45;;;9.60;;
46717;SDS011;32448;44.960;-0.698;2024-03-02T06:19:22;73.25;;;24.75;;
46717;SDS011;32448;44.960;-0.698;2024-03-02T06:21:51;15.10;;;5.07;;
46717;SDS011;32448;44.960;-0.698;2024-03-02T06:24:17;10.93;;;3.83;;
46717;SDS011;32448;44.960;-0.698;2024-03-02T06:26:45;8.45;;;3.25;;
46717;SDS011;32448;44.960;-0.698;2024-03-02T06:29:12;16.33;;;6.80;;
46717;SDS011;32448;44.960;-0.698;2024-03-02T06:31:39;28.00;;;10.70;;
46717;SDS011;32448;44.960;-0.698;2024-03-02T06:34:07;15.05;;;5.45;;
46717;SDS011;32448;44.960;-0.698;2024-03-02T06:36:35;7.75;;;2.17;;
46717;SDS011;32448;44.960;-0.698;2024-03-02T06:39:02;5.13;;;1.73;;
46717;SDS011;32448;44.960;-0.698;2024-03-02T06:41:29;2.20;;;0.70;;
46717;SDS011;32448;44.960;-0.698;2024-03-02T06:43:56;2.95;;;0.80;;
46717;SDS011;32448;44.960;-0.698;2024-03-02T06:46:26;2.47;;;0.73;;
46717;SDS011;32448;44.960;-0.698;2024-03-02T06:48:53;2.53;;;0.70;;
46717;SDS011;32448;44.960;-0.698;2024-03-02T06:51:21;4.05;;;1.20;;
46717;SDS011;32448;44.960;-0.698;2024-03-02T06:53:48;5.80;;;1.08;;
46717;SDS011;32448;44.960;-0.698;2024-03-02T06:56:15;3.25;;;0.80;;
46717;SDS011;32448;44.960;-0.698;2024-03-02T06:58:43;6.65;;;1.38;;
46717;SDS011;32448;44.960;-0.698;2024-03-02T07:01:09;2.30;;;1.10;;
46717;SDS011;32448;44.960;-0.698;2024-03-02T07:03:36;3.70;;;1.02;;
46717;SDS011;32448;44.960;-0.698;2024-03-02T07:06:06;5.15;;;1.33;;
46717;SDS011;32448;44.960;-0.698;2024-03-02T07:08:33;2.50;;;1.00;;
46717;SDS011;32448;44.960;-0.698;2024-03-02T07:11:00;3.28;;;1.58;;
46717;SDS011;32448;44.960;-0.698;2024-03-02T07:13:27;7.35;;;2.00;;
46717;SDS011;32448;44.960;-0.698;2024-03-02T07:15:54;5.05;;;1.83;;
46717;SDS011;32448;44.960;-0.698;2024-03-02T07:18:30;5.70;;;1.83;;
46717;SDS011;32448;44.960;-0.698;2024-03-02T07:20:57;4.78;;;1.25;;
46717;SDS011;32448;44.960;-0.698;2024-03-02T07:23:28;8.55;;;3.00;;
46717;SDS011;32448;44.960;-0.698;2024-03-02T07:25:55;5.70;;;2.50;;
46717;SDS011;32448;44.960;-0.698;2024-03-02T07:28:26;4.35;;;1.40;;
46717;SDS011;32448;44.960;-0.698;2024-03-02T07:31:04;2.45;;;0.88;;
46717;SDS011;32448;44.960;-0.698;2024-03-02T07:33:31;7.00;;;1.63;;
46717;SDS011;32448;44.960;-0.698;2024-03-02T07:35:59;9.55;;;2.30;;
46717;SDS011;32448;44.960;-0.698;2024-03-02T07:38:30;20.92;;;7.15;;
46717;SDS011;32448;44.960;-0.698;2024-03-02T07:40:59;12.90;;;2.70;;
46717;SDS011;32448;44.960;-0.698;2024-03-02T07:43:26;3.70;;;1.33;;
46717;SDS011;32448;44.960;-0.698;2024-03-02T07:45:53;9.30;;;2.28;;
46717;SDS011;32448;44.960;-0.698;2024-03-02T07:48:21;3.25;;;0.98;;
46717;SDS011;32448;44.960;-0.698;2024-03-02T07:50:50;1.77;;;0.60;;
46717;SDS011;32448;44.960;-0.698;2024-03-02T07:53:17;4.10;;;0.77;;
46717;SDS011;32448;44.960;-0.698;2024-03-02T07:55:45;1.08;;;0.70;;
46717;SDS011;32448;44.960;-0.698;2024-03-02T07:58:15;2.55;;;1.00;;
46717;SDS011;32448;44.960;-0.698;2024-03-02T08:00:42;2.85;;;0.82;;
46717;SDS011;32448;44.960;-0.698;2024-03-02T08:03:09;1.70;;;0.70;;
46717;SDS011;32448;44.960;-0.698;2024-03-02T08:05:38;1.90;;;1.15;;
46717;SDS011;32448;44.960;-0.698;2024-03-02T08:08:05;3.25;;;0.93;;
46717;SDS011;32448;44.960;-0.698;2024-03-02T08:10:32;4.03;;;1.30;;
46717;SDS011;32448;44.960;-0.698;2024-03-02T08:13:00;3.38;;;1.30;;
46717;SDS011;32448;44.960;-0.698;2024-03-02T08:15:27;2.92;;;1.10;;
46717;SDS011;32448;44.960;-0.698;2024-03-02T08:17:54;1.92;;;1.30;;
46717;SDS011;32448;44.960;-0.698;2024-03-02T08:20:23;1.83;;;1.02;;
46717;SDS011;32448;44.960;-0.698;2024-03-02T08:22:50;3.33;;;1.10;;
46717;SDS011;32448;44.960;-0.698;2024-03-02T08:25:17;2.33;;;1.30;;
46717;SDS011;32448;44.960;-0.698;2024-03-02T08:27:44;1.73;;;1.05;;
46717;SDS011;32448;44.960;-0.698;2024-03-02T08:30:14;4.00;;;1.70;;
46717;SDS011;32448;44.960;-0.698;2024-03-02T08:32:41;3.15;;;1.42;;
46717;SDS011;32448;44.960;-0.698;2024-03-02T08:35:08;5.38;;;1.70;;
46717;SDS011;32448;44.960;-0.698;2024-03-02T08:37:35;6.00;;;1.63;;
46717;SDS011;32448;44.960;-0.698;2024-03-02T08:40:05;2.45;;;1.60;;
46717;SDS011;32448;44.960;-0.698;2024-03-02T08:42:34;4.15;;;1.80;;
46717;SDS011;32448;44.960;-0.698;2024-03-02T08:45:01;3.55;;;2.00;;
46717;SDS011;32448;44.960;-0.698;2024-03-02T08:47:28;2.95;;;1.75;;
46717;SDS011;32448;44.960;-0.698;2024-03-02T08:49:55;4.53;;;1.58;;
46717;SDS011;32448;44.960;-0.698;2024-03-02T08:52:25;2.83;;;1.70;;
46717;SDS011;32448;44.960;-0.698;2024-03-02T08:54:53;3.15;;;1.80;;
46717;SDS011;32448;44.960;-0.698;2024-03-02T08:57:20;2.70;;;1.80;;
46717;SDS011;32448;44.960;-0.698;2024-03-02T08:59:47;4.65;;;1.98;;
46717;SDS011;32448;44.960;-0.698;2024-03-02T09:02:15;3.30;;;1.90;;
46717;SDS011;32448;44.960;-0.698;2024-03-02T09:04:42;3.90;;;2.00;;
46717;SDS011;32448;44.960;-0.698;2024-03-02T09:07:08;4.32;;;1.75;;
46717;SDS011;32448;44.960;-0.698;2024-03-02T09:09:35;2.60;;;2.00;;
46717;SDS011;32448;44.960;-0.698;2024-03-02T09:12:02;3.33;;;1.70;;
46717;SDS011;32448;44.960;-0.698;2024-03-02T09:14:30;2.58;;;1.27;;
46717;SDS011;32448;44.960;-0.698;2024-03-02T09:16:57;5.05;;;2.00;;
46717;SDS011;32448;44.960;-0.698;2024-03-02T09:19:24;3.45;;;1.60;;
46717;SDS011;32448;44.960;-0.698;2024-03-02T09:21:51;3.45;;;1.80;;
46717;SDS011;32448;44.960;-0.698;2024-03-02T09:24:18;2.90;;;1.80;;
46717;SDS011;32448;44.960;-0.698;2024-03-02T09:26:45;3.30;;;1.75;;
46717;SDS011;32448;44.960;-0.698;2024-03-02T09:29:15;4.15;;;1.70;;
46717;SDS011;32448;44.960;-0.698;2024-03-02T09:31:42;1.77;;;1.30;;
46717;SDS011;32448;44.960;-0.698;2024-03-02T09:34:09;4.82;;;1.60;;
46717;SDS011;32448;44.960;-0.698;2024-03-02T09:36:37;4.45;;;1.40;;
46717;SDS011;32448;44.960;-0.698;2024-03-02T09:39:04;1.60;;;1.50;;
46717;SDS011;32448;44.960;-0.698;2024-03-02T09:41:32;3.30;;;1.85;;
46717;SDS011;32448;44.960;-0.698;2024-03-02T09:44:01;1.95;;;1.20;;
46717;SDS011;32448;44.960;-0.698;2024-03-02T09:46:28;2.65;;;1.42;;
46717;SDS011;32448;44.960;-0.698;2024-03-02T09:48:55;3.13;;;1.63;;
46717;SDS011;32448;44.960;-0.698;2024-03-02T09:51:23;4.25;;;1.52;;
46717;SDS011;32448;44.960;-0.698;2024-03-02T09:53:50;3.22;;;1.50;;
46717;SDS011;32448;44.960;-0.698;2024-03-02T09:56:17;2.63;;;1.20;;
46717;SDS011;32448;44.960;-0.698;2024-03-02T09:58:47;1.70;;;1.10;;
46717;SDS011;32448;44.960;-0.698;2024-03-02T10:01:14;2.15;;;1.17;;
46717;SDS011;32448;44.960;-0.698;2024-03-02T10:03:41;2.83;;;1.40;;
46717;SDS011;32448;44.960;-0.698;2024-03-02T10:06:19;1.77;;;1.02;;
46717;SDS011;32448;44.960;-0.698;2024-03-02T10:08:49;1.95;;;1.00;;
46717;SDS011;32448;44.960;-0.698;2024-03-02T10:11:30;2.38;;;1.25;;
46717;SDS011;32448;44.960;-0.698;2024-03-02T10:14:12;2.53;;;1.38;;
46717;SDS011;32448;44.960;-0.698;2024-03-02T10:16:41;2.08;;;1.30;;
46717;SDS011;32448;44.960;-0.698;2024-03-02T10:19:21;2.95;;;1.27;;
46717;SDS011;32448;44.960;-0.698;2024-03-02T10:21:50;1.58;;;1.20;;
46717;SDS011;32448;44.960;-0.698;2024-03-02T10:24:20;3.60;;;1.15;;
46717;SDS011;32448;44.960;-0.698;2024-03-02T10:26:49;2.08;;;1.38;;
46717;SDS011;32448;44.960;-0.698;2024-03-02T10:29:17;2.75;;;1.20;;
46717;SDS011;32448;44.960;-0.698;2024-03-02T10:31:45;2.15;;;1.08;;
46717;SDS011;32448;44.960;-0.698;2024-03-02T10:34:13;1.85;;;1.00;;
46717;SDS011;32448;44.960;-0.698;2024-03-02T10:36:41;2.28;;;1.10;;
46717;SDS011;32448;44.960;-0.698;2024-03-02T10:39:09;3.67;;;1.58;;
46717;SDS011;32448;44.960;-0.698;2024-03-02T10:41:37;12.13;;;3.35;;
46717;SDS011;32448;44.960;-0.698;2024-03-02T10:44:09;5.15;;;2.05;;
46717;SDS011;32448;44.960;-0.698;2024-03-02T10:46:36;6.43;;;2.08;;
46717;SDS011;32448;44.960;-0.698;2024-03-02T10:49:05;3.55;;;1.33;;
46717;SDS011;32448;44.960;-0.698;2024-03-02T10:51:35;15.90;;;5.15;;
46717;SDS011;32448;44.960;-0.698;2024-03-02T10:54:05;4.80;;;1.92;;
46717;SDS011;32448;44.960;-0.698;2024-03-02T10:56:39;3.72;;;1.63;;
46717;SDS011;32448;44.960;-0.698;2024-03-02T10:59:17;2.72;;;1.25;;
46717;SDS011;32448;44.960;-0.698;2024-03-02T11:02:01;3.40;;;1.20;;
46717;SDS011;32448;44.960;-0.698;2024-03-02T11:04:32;3.78;;;1.27;;
46717;SDS011;32448;44.960;-0.698;2024-03-02T11:07:06;2.88;;;1.38;;
46717;SDS011;32448;44.960;-0.698;2024-03-02T11:09:37;2.03;;;1.40;;
46717;SDS011;32448;44.960;-0.698;2024-03-02T11:14:41;3.67;;;1.40;;
46717;SDS011;32448;44.960;-0.698;2024-03-02T11:17:13;3.83;;;1.48;;
46717;SDS011;32448;44.960;-0.698;2024-03-02T11:19:44;2.05;;;1.20;;
46717;SDS011;32448;44.960;-0.698;2024-03-02T11:22:13;4.78;;;1.88;;
46717;SDS011;32448;44.960;-0.698;2024-03-02T11:24:47;5.63;;;1.95;;
46717;SDS011;32448;44.960;-0.698;2024-03-02T11:27:15;10.07;;;3.80;;
46717;SDS011;32448;44.960;-0.698;2024-03-02T11:31:00;6.82;;;3.17;;
46717;SDS011;32448;44.960;-0.698;2024-03-02T11:33:07;8.52;;;3.70;;
46717;SDS011;32448;44.960;-0.698;2024-03-02T11:35:38;8.38;;;3.58;;
46717;SDS011;32448;44.960;-0.698;2024-03-02T11:38:09;14.88;;;8.57;;
46717;SDS011;32448;44.960;-0.698;2024-03-02T11:40:38;8.52;;;3.70;;
46717;SDS011;32448;44.960;-0.698;2024-03-02T11:43:07;5.40;;;2.67;;
46717;SDS011;32448;44.960;-0.698;2024-03-02T11:45:37;7.32;;;2.63;;
46717;SDS011;32448;44.960;-0.698;2024-03-02T11:48:12;5.88;;;2.20;;
46717;SDS011;32448;44.960;-0.698;2024-03-02T11:53:08;11.32;;;3.78;;
46717;SDS011;32448;44.960;-0.698;2024-03-02T11:55:37;7.65;;;3.13;;
46717;SDS011;32448;44.960;-0.698;2024-03-02T11:58:09;9.00;;;3.65;;
46717;SDS011;32448;44.960;-0.698;2024-03-02T12:00:36;8.35;;;2.50;;
46717;SDS011;32448;44.960;-0.698;2024-03-02T12:03:07;7.70;;;3.70;;
46717;SDS011;32448;44.960;-0.698;2024-03-02T12:05:35;9.07;;;2.47;;
46717;SDS011;32448;44.960;-0.698;2024-03-02T12:08:04;3.28;;;1.10;;
46717;SDS011;32448;44.960;-0.698;2024-03-02T12:10:33;1.92;;;0.80;;
46717;SDS011;32448;44.960;-0.698;2024-03-02T12:13:02;0.95;;;0.60;;
46717;SDS011;32448;44.960;-0.698;2024-03-02T12:15:34;1.88;;;0.50;;
46717;SDS011;32448;44.960;-0.698;2024-03-02T12:18:06;1.25;;;0.35;;
46717;SDS011;32448;44.960;-0.698;2024-03-02T12:20:37;1.30;;;0.50;;
46717;SDS011;32448;44.960;-0.698;2024-03-02T12:23:04;1.95;;;0.93;;
46717;SDS011;32448;44.960;-0.698;2024-03-02T12:25:31;1.33;;;0.40;;
46717;SDS011;32448;44.960;-0.698;2024-03-02T12:28:02;1.27;;;0.55;;
46717;SDS011;32448;44.960;-0.698;2024-03-02T12:30:30;1.60;;;0.70;;
46717;SDS011;32448;44.960;-0.698;2024-03-02T12:32:57;1.13;;;0.73;;
46717;SDS011;32448;44.960;-0.698;2024-03-02T12:35:25;3.25;;;0.93;;
46717;SDS011;32448;44.960;-0.698;2024-03-02T12:37:53;2.50;;;0.82;;
46717;SDS011;32448;44.960;-0.698;2024-03-02T12:40:21;5.50;;;1.95;;
46717;SDS011;32448;44.960;-0.698;2024-03-02T12:42:49;3.00;;;1.30;;
46717;SDS011;32448;44.960;-0.698;2024-03-02T12:45:18;2.28;;;1.13;;
46717;SDS011;32448;44.960;-0.698;2024-03-02T12:47:52;5.03;;;2.15;;
46717;SDS011;32448;44.960;-0.698;2024-03-02T12:50:19;3.60;;;1.92;;
46717;SDS011;32448;44.960;-0.698;2024-03-02T12:52:53;3.47;;;1.65;;
46717;SDS011;32448;44.960;-0.698;2024-03-02T12:55:22;3.42;;;1.30;;
46717;SDS011;32448;44.960;-0.698;2024-03-02T12:57:50;2.78;;;1.40;;
46717;SDS011;32448;44.960;-0.698;2024-03-02T13:00:19;5.50;;;1.92;;
46717;SDS011;32448;44.960;-0.698;2024-03-02T13:02:47;6.22;;;1.70;;
46717;SDS011;32448;44.960;-0.698;2024-03-02T13:05:20;4.95;;;2.20;;
46717;SDS011;32448;44.960;-0.698;2024-03-02T13:07:48;2.92;;;1.35;;
46717;SDS011;32448;44.960;-0.698;2024-03-02T13:10:16;2.60;;;0.82;;
46717;SDS011;32448;44.960;-0.698;2024-03-02T13:12:43;3.67;;;0.68;;
46717;SDS011;32448;44.960;-0.698;2024-03-02T13:15:11;1.80;;;0.70;;
46717;SDS011;32448;44.960;-0.698;2024-03-02T13:17:44;2.72;;;0.50;;
46717;SDS011;32448;44.960;-0.698;2024-03-02T13:20:13;2.42;;;0.55;;
46717;SDS011;32448;44.960;-0.698;2024-03-02T13:22:42;1.35;;;0.40;;
46717;SDS011;32448;44.960;-0.698;2024-03-02T13:25:11;4.63;;;0.82;;
46717;SDS011;32448;44.960;-0.698;2024-03-02T13:27:38;1.27;;;0.40;;
46717;SDS011;32448;44.960;-0.698;2024-03-02T13:30:06;2.22;;;0.60;;
46717;SDS011;32448;44.960;-0.698;2024-03-02T13:32:36;2.38;;;1.10;;
46717;SDS011;32448;44.960;-0.698;2024-03-02T13:35:03;3.72;;;1.75;;
46717;SDS011;32448;44.960;-0.698;2024-03-02T13:37:30;7.00;;;2.90;;
46717;SDS011;32448;44.960;-0.698;2024-03-02T13:39:57;8.77;;;3.38;;
46717;SDS011;32448;44.960;-0.698;2024-03-02T13:42:24;8.98;;;4.30;;
46717;SDS011;32448;44.960;-0.698;2024-03-02T13:44:52;5.97;;;2.72;;
46717;SDS011;32448;44.960;-0.698;2024-03-02T13:47:20;5.05;;;2.25;;
46717;SDS011;32448;44.960;-0.698;2024-03-02T13:49:48;4.68;;;1.85;;
46717;SDS011;32448;44.960;-0.698;2024-03-02T13:52:15;5.50;;;1.60;;
46717;SDS011;32448;44.960;-0.698;2024-03-02T13:54:46;6.47;;;1.70;;
46717;SDS011;32448;44.960;-0.698;2024-03-02T13:57:14;4.13;;;1.55;;
46717;SDS011;32448;44.960;-0.698;2024-03-02T13:59:42;3.20;;;1.02;;
46717;SDS011;32448;44.960;-0.698;2024-03-02T14:02:11;2.67;;;1.20;;
46717;SDS011;32448;44.960;-0.698;2024-03-02T14:04:39;3.55;;;0.88;;
46717;SDS011;32448;44.960;-0.698;2024-03-02T14:07:07;3.40;;;1.50;;
46717;SDS011;32448;44.960;-0.698;2024-03-02T14:09:34;4.80;;;1.17;;
46717;SDS011;32448;44.960;-0.698;2024-03-02T14:12:02;3.85;;;1.25;;
46717;SDS011;32448;44.960;-0.698;2024-03-02T14:14:30;4.05;;;1.80;;
46717;SDS011;32448;44.960;-0.698;2024-03-02T14:16:57;5.30;;;1.55;;
46717;SDS011;32448;44.960;-0.698;2024-03-02T14:19:31;5.82;;;1.70;;
46717;SDS011;32448;44.960;-0.698;2024-03-02T14:21:58;2.78;;;1.40;;
46717;SDS011;32448;44.960;-0.698;2024-03-02T14:24:26;3.95;;;1.40;;
46717;SDS011;32448;44.960;-0.698;2024-03-02T14:26:54;3.28;;;1.00;;
46717;SDS011;32448;44.960;-0.698;2024-03-02T14:29:35;3.03;;;1.02;;
46717;SDS011;32448;44.960;-0.698;2024-03-02T14:32:04;4.20;;;1.38;;
46717;SDS011;32448;44.960;-0.698;2024-03-02T14:34:32;4.47;;;1.50;;
46717;SDS011;32448;44.960;-0.698;2024-03-02T14:37:02;3.58;;;1.25;;
46717;SDS011;32448;44.960;-0.698;2024-03-02T14:39:29;2.65;;;1.40;;
46717;SDS011;32448;44.960;-0.698;2024-03-02T14:42:01;4.05;;;1.27;;
46717;SDS011;32448;44.960;-0.698;2024-03-02T14:44:28;4.38;;;0.90;;
46717;SDS011;32448;44.960;-0.698;2024-03-02T14:46:55;5.45;;;1.60;;
46717;SDS011;32448;44.960;-0.698;2024-03-02T14:49:25;5.97;;;1.63;;
46717;SDS011;32448;44.960;-0.698;2024-03-02T14:51:52;4.05;;;1.85;;
46717;SDS011;32448;44.960;-0.698;2024-03-02T14:54:20;4.35;;;1.75;;